createdAt,value
2015-11-02T00:00:03.012Z,5.6
2015-11-02T00:01:05.263Z,5.5
2015-11-02T00:02:01.484Z,5.5
2015-11-02T00:03:00.705Z,5.5
2015-11-02T00:03:59.941Z,5.5
2015-11-02T00:06:00.977Z,5.5
2015-11-02T00:07:00.214Z,5.5
2015-11-02T00:07:59.435Z,5.4
2015-11-02T00:08:58.687Z,5.4
2015-11-02T00:09:57.908Z,5.4
2015-11-02T00:10:57.145Z,5.4
2015-11-02T00:11:59.413Z,5.4
2015-11-02T00:12:55.619Z,5.4
2015-11-02T00:13:54.854Z,5.4
2015-11-02T00:14:54.152Z,5.4
2015-11-02T00:15:55.877Z,5.3
2015-11-02T00:16:55.377Z,5.3
2015-11-02T00:17:54.865Z,5.3
2015-11-02T00:18:57.385Z,5.3
2015-11-02T00:19:53.838Z,5.3
2015-11-02T00:21:55.862Z,5.3
2015-11-02T00:22:52.315Z,5.3
2015-11-02T00:24:51.351Z,5.3
2015-11-02T00:25:53.104Z,5.3
2015-11-02T00:26:52.591Z,5.3
2015-11-02T00:27:52.094Z,5.3
2015-11-02T00:29:54.100Z,5.2
2015-11-02T00:30:50.570Z,5.2
2015-11-02T00:31:50.308Z,5.2
2015-11-02T00:33:51.220Z,5.2
2015-11-02T00:34:49.614Z,5.2
2015-11-02T00:35:51.366Z,5.2
2015-11-02T00:36:51.103Z,5.2
2015-11-02T00:37:50.840Z,5.2
2015-11-02T00:38:50.608Z,5.1
2015-11-02T00:39:51.767Z,5.1
2015-11-02T00:40:50.098Z,5.1
2015-11-02T00:42:51.024Z,5.1
2015-11-02T00:43:49.355Z,5.1
2015-11-02T00:44:49.155Z,5.1
2015-11-02T00:45:50.893Z,5.1
2015-11-02T00:46:50.645Z,5.1
2015-11-02T00:47:50.398Z,5.1
2015-11-02T00:48:50.151Z,5
2015-11-02T00:49:49.888Z,5
2015-11-02T00:50:52.672Z,5
2015-11-02T00:51:49.392Z,5
2015-11-02T00:52:49.145Z,5
2015-11-02T00:53:50.320Z,5
2015-11-02T00:54:50.120Z,5
2015-11-02T00:55:50.450Z,5
2015-11-02T00:56:50.187Z,4.9
2015-11-02T00:57:49.956Z,4.9
2015-11-02T00:58:49.709Z,4.9
2015-11-02T00:59:49.445Z,4.9
2015-11-02T01:00:49.198Z,4.9
2015-11-02T01:01:48.951Z,4.9
2015-11-02T01:02:48.704Z,4.9
2015-11-02T01:03:48.441Z,4.9
2015-11-02T01:04:48.256Z,4.9
2015-11-02T01:05:50.009Z,4.9
2015-11-02T01:06:50.012Z,4.9
2015-11-02T01:07:50.013Z,4.9
2015-11-02T01:08:49.766Z,4.9
2015-11-02T01:09:49.785Z,4.9
2015-11-02T01:10:49.538Z,4.8
2015-11-02T01:11:49.274Z,4.9
2015-11-02T01:12:49.294Z,4.8
2015-11-02T01:13:49.046Z,4.8
2015-11-02T01:16:50.851Z,4.8
2015-11-02T01:17:50.854Z,4.8
2015-11-02T01:18:50.872Z,4.8
2015-11-02T01:19:50.890Z,4.8
2015-11-02T01:20:50.893Z,4.8
2015-11-02T01:21:50.896Z,4.7
2015-11-02T01:22:50.899Z,4.8
2015-11-02T01:23:51.510Z,4.7
2015-11-02T01:24:50.966Z,4.7
2015-11-02T01:25:52.718Z,4.7
2015-11-02T01:26:52.721Z,4.7
2015-11-02T01:27:52.724Z,4.7
2015-11-02T01:28:52.743Z,4.7
2015-11-02T01:30:53.357Z,4.7
2015-11-02T01:31:53.017Z,4.7
2015-11-02T01:33:53.553Z,4.7
2015-11-02T01:34:53.867Z,4.6
2015-11-02T01:35:55.605Z,4.6
2015-11-02T01:36:55.873Z,4.6
2015-11-02T01:37:56.142Z,4.6
2015-11-02T01:38:56.410Z,4.6
2015-11-02T01:40:56.947Z,4.6
2015-11-02T01:41:57.199Z,4.6
2015-11-02T01:42:57.468Z,4.6
2015-11-02T01:43:57.736Z,4.6
2015-11-02T01:44:58.052Z,4.5
2015-11-02T01:45:59.804Z,4.6
2015-11-02T01:47:00.072Z,4.5
2015-11-02T01:48:00.324Z,4.5
2015-11-02T01:49:00.580Z,4.5
2015-11-02T01:50:00.849Z,4.5
2015-11-02T01:51:01.132Z,4.5
2015-11-02T01:52:01.385Z,4.5
2015-11-02T01:53:01.653Z,4.5
2015-11-02T01:54:01.906Z,4.5
2015-11-02T01:55:02.253Z,4.5
2015-11-02T01:56:03.990Z,4.5
2015-11-02T01:57:04.242Z,4.5
2015-11-02T01:58:04.604Z,4.5
2015-11-02T01:59:04.776Z,4.5
2015-11-02T02:00:05.045Z,4.5
2015-11-02T02:01:05.563Z,4.5
2015-11-02T02:02:05.831Z,4.5
2015-11-02T02:03:06.364Z,4.5
2015-11-02T02:04:06.618Z,4.5
2015-11-02T02:05:07.198Z,4.5
2015-11-02T02:06:08.936Z,4.5
2015-11-02T02:07:09.453Z,4.5
2015-11-02T02:08:09.988Z,4.5
2015-11-02T02:09:10.522Z,4.5
2015-11-02T02:10:11.025Z,4.5
2015-11-02T02:11:11.558Z,4.4
2015-11-02T02:12:12.077Z,4.4
2015-11-02T02:13:12.611Z,4.4
2015-11-02T02:14:12.864Z,4.4
2015-11-02T02:15:13.444Z,4.4
2015-11-02T02:16:15.197Z,4.4
2015-11-02T02:17:15.716Z,4.4
2015-11-02T02:18:16.233Z,4.3
2015-11-02T02:19:16.751Z,4.3
2015-11-02T02:20:17.270Z,4.3
2015-11-02T02:21:17.804Z,4.3
2015-11-02T02:22:18.323Z,4.3
2015-11-02T02:23:18.840Z,4.3
2015-11-02T02:24:19.374Z,4.3
2015-11-02T02:25:19.940Z,4.3
2015-11-02T02:26:21.693Z,4.3
2015-11-02T02:27:22.226Z,4.3
2015-11-02T02:28:22.745Z,4.3
2015-11-02T02:29:23.248Z,4.3
2015-11-02T02:30:23.782Z,4.3
2015-11-02T02:31:24.315Z,4.3
2015-11-02T02:32:24.834Z,4.3
2015-11-02T02:34:26.387Z,4.3
2015-11-02T02:35:27.216Z,4.3
2015-11-02T02:36:28.969Z,4.3
2015-11-02T02:38:30.522Z,4.3
2015-11-02T02:39:31.305Z,4.3
2015-11-02T02:40:32.074Z,4.3
2015-11-02T02:41:32.858Z,4.2
2015-11-02T02:42:33.642Z,4.2
2015-11-02T02:43:34.425Z,4.2
2015-11-02T02:44:35.194Z,4.2
2015-11-02T02:45:36.025Z,4.2
2015-11-02T02:46:37.778Z,4.2
2015-11-02T02:47:38.561Z,4.1
2015-11-02T02:48:39.346Z,4.1
2015-11-02T02:49:40.129Z,4.1
2015-11-02T02:50:43.914Z,4.1
2015-11-02T02:51:41.682Z,4.1
2015-11-02T02:52:42.449Z,4.1
2015-11-02T02:53:43.234Z,4.1
2015-11-02T02:54:44.018Z,4.1
2015-11-02T02:55:44.865Z,4.1
2015-11-02T02:56:46.617Z,4.1
2015-11-02T02:57:47.385Z,4.1
2015-11-02T02:58:48.170Z,4.1
2015-11-02T02:59:48.954Z,4.1
2015-11-02T03:00:49.721Z,4
2015-11-02T03:01:50.505Z,4
2015-11-02T03:02:51.289Z,4
2015-11-02T03:03:52.073Z,4
2015-11-02T03:04:52.856Z,4
2015-11-02T03:05:56.688Z,4
2015-11-02T03:06:55.425Z,3.9
2015-11-02T03:07:56.209Z,3.9
2015-11-02T03:08:56.992Z,3.9
2015-11-02T03:09:57.777Z,3.9
2015-11-02T03:10:58.545Z,3.9
2015-11-02T03:11:59.330Z,3.9
2015-11-02T03:13:00.128Z,3.9
2015-11-02T03:14:03.900Z,3.9
2015-11-02T03:15:01.681Z,3.9
2015-11-02T03:16:02.512Z,3.9
2015-11-02T03:17:04.266Z,3.9
2015-11-02T03:18:05.051Z,3.9
2015-11-02T03:19:05.835Z,3.8
2015-11-02T03:20:06.603Z,3.8
2015-11-02T03:22:08.171Z,3.8
2015-11-02T03:23:08.940Z,3.8
2015-11-02T03:24:09.723Z,3.8
2015-11-02T03:25:10.508Z,3.8
2015-11-02T03:26:11.354Z,3.8
2015-11-02T03:27:13.091Z,3.7
2015-11-02T03:28:13.875Z,3.7
2015-11-02T03:29:17.674Z,3.7
2015-11-02T03:30:15.442Z,3.7
2015-11-02T03:31:16.227Z,3.7
2015-11-02T03:33:17.779Z,3.7
2015-11-02T03:34:18.562Z,3.7
2015-11-02T03:35:19.347Z,3.7
2015-11-02T03:36:20.178Z,3.7
2015-11-02T03:37:21.930Z,3.7
2015-11-02T03:38:22.714Z,3.7
2015-11-02T03:39:23.498Z,3.7
2015-11-02T03:40:24.267Z,3.7
2015-11-02T03:41:25.051Z,3.7
2015-11-02T03:42:25.834Z,3.7
2015-11-02T03:43:26.619Z,3.7
2015-11-02T03:44:27.403Z,3.7
2015-11-02T03:45:28.186Z,3.6
2015-11-02T03:46:29.016Z,3.6
2015-11-02T03:47:30.769Z,3.6
2015-11-02T03:48:31.538Z,3.6
2015-11-02T03:49:32.338Z,3.6
2015-11-02T03:50:33.121Z,3.6
2015-11-02T03:51:33.890Z,3.6
2015-11-02T03:52:34.674Z,3.6
2015-11-02T03:53:35.458Z,3.6
2015-11-02T03:54:36.241Z,3.6
2015-11-02T03:55:37.026Z,3.6
2015-11-02T03:56:38.122Z,3.6
2015-11-02T03:57:39.875Z,3.5
2015-11-02T03:58:40.649Z,3.5
2015-11-02T03:59:41.695Z,3.5
2015-11-02T04:00:45.517Z,3.5
2015-11-02T04:01:43.249Z,3.5
2015-11-02T04:02:44.267Z,3.5
2015-11-02T04:03:45.067Z,3.5
2015-11-02T04:04:46.085Z,3.5
2015-11-02T04:05:47.135Z,3.5
2015-11-02T04:06:48.231Z,3.5
2015-11-02T04:07:49.984Z,3.4
2015-11-02T04:08:51.017Z,3.4
2015-11-02T04:09:52.051Z,3.4
2015-11-02T04:10:53.085Z,3.4
2015-11-02T04:11:54.135Z,3.4
2015-11-02T04:12:55.168Z,3.4
2015-11-02T04:13:56.453Z,3.4
2015-11-02T04:14:57.753Z,3.4
2015-11-02T04:15:58.802Z,3.4
2015-11-02T04:17:00.148Z,3.4
2015-11-02T04:18:01.901Z,3.4
2015-11-02T04:19:03.185Z,3.4
2015-11-02T04:20:07.487Z,3.3
2015-11-02T04:21:05.771Z,3.3
2015-11-02T04:22:07.070Z,3.3
2015-11-02T04:23:11.386Z,3.3
2015-11-02T04:24:09.670Z,3.3
2015-11-02T04:25:10.985Z,3.3
2015-11-02T04:26:12.253Z,3.3
2015-11-02T04:27:13.600Z,3.3
2015-11-02T04:28:15.369Z,3.3
2015-11-02T04:29:16.653Z,3.3
2015-11-02T04:30:17.952Z,3.3
2015-11-02T04:31:19.252Z,3.3
2015-11-02T04:32:20.536Z,3.3
2015-11-02T04:33:21.835Z,3.3
2015-11-02T04:34:23.118Z,3.3
2015-11-02T04:35:24.434Z,3.3
2015-11-02T04:36:25.733Z,3.3
2015-11-02T04:37:27.065Z,3.3
2015-11-02T04:38:28.832Z,3.3
2015-11-02T04:39:30.116Z,3.3
2015-11-02T04:40:31.416Z,3.3
2015-11-02T04:41:32.716Z,3.3
2015-11-02T04:42:34.015Z,3.3
2015-11-02T04:43:35.299Z,3.2
2015-11-02T04:44:36.599Z,3.2
2015-11-02T04:45:37.899Z,3.2
2015-11-02T04:46:39.198Z,3.2
2015-11-02T04:47:40.545Z,3.2
2015-11-02T04:49:43.597Z,3.2
2015-11-02T04:50:44.880Z,3.2
2015-11-02T04:51:46.195Z,3.2
2015-11-02T04:54:50.078Z,3.2
2015-11-02T04:55:51.378Z,3.2
2015-11-02T04:56:52.678Z,3.2
2015-11-02T04:57:54.025Z,3.2
2015-11-02T04:58:58.808Z,3.1
2015-11-02T04:59:57.077Z,3.1
2015-11-02T05:00:58.377Z,3.1
2015-11-02T05:02:02.676Z,3.1
2015-11-02T05:03:00.960Z,3.1
2015-11-02T05:04:02.260Z,3.1
2015-11-02T05:05:03.559Z,3.1
2015-11-02T05:06:04.859Z,3.1
2015-11-02T05:07:06.142Z,3.1
2015-11-02T05:08:07.507Z,3.1
2015-11-02T05:09:09.260Z,3.1
2015-11-02T05:10:10.559Z,3.1
2015-11-02T05:11:11.843Z,3.1
2015-11-02T05:12:13.159Z,3.1
2015-11-02T05:13:14.458Z,3
2015-11-02T05:14:15.757Z,3
2015-11-02T05:15:17.042Z,3.1
2015-11-02T05:16:18.341Z,3
2015-11-02T05:17:19.641Z,3
2015-11-02T05:18:21.003Z,3
2015-11-02T05:19:22.756Z,3
2015-11-02T05:20:24.056Z,3
2015-11-02T05:21:25.340Z,3
2015-11-02T05:22:26.889Z,3
2015-11-02T05:23:28.203Z,3
2015-11-02T05:24:29.737Z,3
2015-11-02T05:25:31.037Z,3
2015-11-02T05:26:32.336Z,3
2015-11-02T05:27:33.636Z,2.9
2015-11-02T05:28:35.248Z,3
2015-11-02T05:29:37.001Z,2.9
2015-11-02T05:30:38.566Z,2.9
2015-11-02T05:31:40.100Z,2.9
2015-11-02T05:32:41.665Z,2.9
2015-11-02T05:33:43.216Z,2.9
2015-11-02T05:34:44.780Z,2.9
2015-11-02T05:35:46.346Z,2.9
2015-11-02T05:36:47.880Z,2.9
2015-11-02T05:37:49.429Z,2.9
2015-11-02T05:39:52.793Z,2.9
2015-11-02T05:40:54.609Z,2.9
2015-11-02T05:41:56.408Z,2.9
2015-11-02T05:42:57.973Z,2.9
2015-11-02T05:43:59.523Z,2.9
2015-11-02T05:45:01.338Z,2.9
2015-11-02T05:46:03.137Z,2.9
2015-11-02T05:47:04.954Z,2.9
2015-11-02T05:48:06.768Z,2.9
2015-11-02T05:49:08.646Z,2.9
2015-11-02T05:50:10.386Z,2.9
2015-11-02T05:51:12.200Z,2.9
2015-11-02T05:52:14.016Z,2.8
2015-11-02T05:53:15.831Z,2.9
2015-11-02T05:54:20.662Z,2.8
2015-11-02T05:55:19.430Z,2.9
2015-11-02T05:57:23.061Z,2.9
2015-11-02T05:58:24.866Z,2.9
2015-11-02T05:59:26.750Z,2.8
2015-11-02T06:01:30.308Z,2.8
2015-11-02T06:02:35.123Z,2.8
2015-11-02T06:03:33.938Z,2.8
2015-11-02T06:04:35.738Z,2.8
2015-11-02T06:06:39.352Z,2.8
2015-11-02T06:08:42.983Z,2.8
2015-11-02T06:09:44.860Z,2.8
2015-11-02T06:10:46.613Z,2.8
2015-11-02T06:11:48.413Z,2.8
2015-11-02T06:12:50.228Z,2.8
2015-11-02T06:13:52.028Z,2.8
2015-11-02T06:14:53.842Z,2.8
2015-11-02T06:15:55.892Z,2.9
2015-11-02T06:16:57.973Z,2.8
2015-11-02T06:18:00.039Z,2.9
2015-11-02T06:19:02.103Z,2.9
2015-11-02T06:20:04.231Z,2.9
2015-11-02T06:21:05.984Z,2.9
2015-11-02T06:22:08.315Z,2.9
2015-11-02T06:23:13.648Z,2.9
2015-11-02T06:24:12.964Z,2.9
2015-11-02T06:25:15.279Z,2.9
2015-11-02T06:26:17.609Z,2.9
2015-11-02T06:27:19.956Z,2.9
2015-11-02T06:28:22.255Z,3
2015-11-02T06:29:24.586Z,3
2015-11-02T06:30:23.104Z,3.1
2015-11-02T06:31:24.857Z,3.1
2015-11-02T06:32:23.344Z,3.1
2015-11-02T06:33:22.066Z,3.1
2015-11-02T06:34:20.803Z,3.1
2015-11-02T06:35:19.540Z,3.2
2015-11-02T06:36:18.261Z,3.1
2015-11-02T06:37:20.030Z,3.2
2015-11-02T06:38:15.735Z,3.2
2015-11-02T06:39:14.473Z,3.2
2015-11-02T06:40:13.257Z,3.2
2015-11-02T06:41:15.010Z,3.3
2015-11-02T06:42:13.731Z,3.3
2015-11-02T06:43:15.484Z,3.3
2015-11-02T06:44:11.202Z,3.3
2015-11-02T06:45:09.924Z,3.3
2015-11-02T06:46:08.661Z,3.3
2015-11-02T06:48:06.134Z,3.3
2015-11-02T06:49:04.887Z,3.3
2015-11-02T06:50:03.656Z,3.3
2015-11-02T06:51:05.408Z,3.3
2015-11-02T06:52:04.146Z,3.3
2015-11-02T06:53:02.867Z,3.3
2015-11-02T06:54:01.604Z,3.4
2015-11-02T06:56:57.862Z,3.4
2015-11-02T06:57:56.537Z,3.4
2015-11-02T06:58:55.274Z,3.4
2015-11-02T07:00:55.811Z,3.4
2015-11-02T07:01:54.548Z,3.4
2015-11-02T07:02:53.285Z,3.4
2015-11-02T07:03:52.022Z,3.4
2015-11-02T07:04:50.744Z,3.4
2015-11-02T07:05:49.465Z,3.5
2015-11-02T07:06:48.202Z,3.5
2015-11-02T07:07:49.955Z,3.5
2015-11-02T07:08:45.660Z,3.5
2015-11-02T07:09:44.460Z,3.5
2015-11-02T07:10:46.212Z,3.5
2015-11-02T07:11:44.950Z,3.5
2015-11-02T07:12:43.672Z,3.5
2015-11-02T07:13:45.440Z,3.6
2015-11-02T07:14:44.176Z,3.6
2015-11-02T07:16:38.854Z,3.6
2015-11-02T07:17:37.591Z,3.6
2015-11-02T07:18:36.578Z,3.7
2015-11-02T07:19:35.627Z,3.7
2015-11-02T07:20:37.365Z,3.7
2015-11-02T07:21:36.367Z,3.7
2015-11-02T07:22:35.354Z,3.7
2015-11-02T07:23:34.342Z,3.8
2015-11-02T07:24:33.329Z,3.8
2015-11-02T07:25:32.331Z,3.8
2015-11-02T07:26:31.553Z,3.9
2015-11-02T07:27:30.806Z,3.9
2015-11-02T07:28:30.059Z,3.9
2015-11-02T07:29:29.358Z,3.9
2015-11-02T07:30:31.094Z,3.9
2015-11-02T07:31:30.347Z,4
2015-11-02T07:32:29.600Z,4
2015-11-02T07:33:28.836Z,4
2015-11-02T07:34:28.074Z,4.1
2015-11-02T07:35:27.327Z,4.1
2015-11-02T07:36:26.564Z,4.2
2015-11-02T07:37:28.816Z,4.2
2015-11-02T07:38:25.053Z,4.2
2015-11-02T07:39:24.352Z,4.3
2015-11-02T07:40:26.105Z,4.3
2015-11-02T07:41:25.358Z,4.4
2015-11-02T07:42:24.611Z,4.4
2015-11-02T07:44:26.116Z,4.5
2015-11-02T07:45:25.354Z,4.5
2015-11-02T07:46:21.822Z,4.6
2015-11-02T07:47:24.343Z,4.6
2015-11-02T07:48:20.827Z,4.7
2015-11-02T07:50:22.130Z,4.9
2015-11-02T07:52:22.792Z,4.9
2015-11-02T07:53:21.138Z,5
2015-11-02T07:54:20.890Z,5.1
2015-11-02T07:55:22.065Z,5.2
2015-11-02T07:56:20.395Z,5.3
2015-11-02T07:57:20.148Z,5.3
2015-11-02T07:58:19.902Z,5.4
2015-11-02T07:59:19.749Z,5.5
2015-11-02T08:00:21.454Z,5.6
2015-11-02T08:01:21.207Z,5.7
2015-11-02T08:02:20.976Z,5.7
2015-11-02T08:03:20.713Z,5.9
2015-11-02T08:04:20.465Z,5.9
2015-11-02T08:05:20.218Z,6.1
2015-11-02T08:06:19.971Z,6.1
2015-11-02T08:07:19.740Z,6.3
2015-11-02T08:08:19.492Z,6.3
2015-11-02T08:09:19.276Z,6.5
2015-11-02T08:10:21.012Z,6.6
2015-11-02T08:11:20.750Z,6.7
2015-11-02T08:12:20.518Z,6.8
2015-11-02T08:13:20.255Z,6.9
2015-11-02T08:14:20.009Z,7.1
2015-11-02T08:15:19.495Z,7.1
2015-11-02T08:16:18.716Z,7.3
2015-11-02T08:17:17.953Z,7.3
2015-11-02T08:18:17.175Z,7.5
2015-11-02T08:19:16.240Z,7.6
2015-11-02T08:20:17.961Z,7.7
2015-11-02T08:21:16.699Z,7.8
2015-11-02T08:22:15.374Z,7.9
2015-11-02T08:23:13.844Z,8
2015-11-02T08:24:16.175Z,8.1
2015-11-02T08:25:18.460Z,8.3
2015-11-02T08:26:20.525Z,8.3
2015-11-02T08:27:22.308Z,8.5
2015-11-02T08:28:23.843Z,8.5
2015-11-02T08:29:25.161Z,8.6
2015-11-02T08:30:26.898Z,8.8
2015-11-02T08:31:27.666Z,8.9
2015-11-02T08:32:28.418Z,9
2015-11-02T08:33:28.921Z,9.1
2015-11-02T08:34:29.158Z,9.2
2015-11-02T08:35:28.911Z,9.3
2015-11-02T08:36:28.148Z,9.3
2015-11-02T08:37:27.338Z,9.3
2015-11-02T08:38:26.044Z,9.4
2015-11-02T08:39:28.390Z,9.5
2015-11-02T08:40:30.143Z,9.6
2015-11-02T08:41:35.428Z,9.7
2015-11-02T08:42:34.445Z,9.7
2015-11-02T08:43:36.495Z,9.8
2015-11-02T08:44:38.264Z,9.9
2015-11-02T08:45:40.064Z,10
2015-11-02T08:46:41.316Z,10
2015-11-02T08:47:45.600Z,10.1
2015-11-02T08:48:43.336Z,10.1
2015-11-02T08:49:43.886Z,10.2
2015-11-02T08:50:45.638Z,10.3
2015-11-02T08:51:46.141Z,10.4
2015-11-02T08:52:46.332Z,10.5
2015-11-02T08:53:46.609Z,10.5
2015-11-02T08:54:46.537Z,10.6
2015-11-02T08:55:46.592Z,10.7
2015-11-02T08:56:46.210Z,10.7
2015-11-02T08:57:45.936Z,10.8
2015-11-02T08:58:45.401Z,10.9
2015-11-02T08:59:44.900Z,10.9
2015-11-02T09:00:46.618Z,11
2015-11-02T09:01:45.835Z,11.1
2015-11-02T09:02:44.755Z,11.1
2015-11-02T09:03:43.444Z,11.3
2015-11-02T09:04:42.132Z,11.3
2015-11-02T09:05:40.586Z,11.3
2015-11-02T09:06:42.884Z,11.4
2015-11-02T09:07:44.901Z,11.4
2015-11-02T09:08:46.669Z,11.5
2015-11-02T09:09:48.234Z,11.6
2015-11-02T09:10:49.938Z,11.5
2015-11-02T09:11:51.191Z,11.6
2015-11-02T09:12:52.194Z,11.7
2015-11-02T09:13:53.196Z,11.7
2015-11-02T09:14:54.198Z,11.7
2015-11-02T09:15:55.216Z,11.8
2015-11-02T09:16:56.203Z,11.9
2015-11-02T09:17:57.190Z,12
2015-11-02T09:18:57.926Z,12
2015-11-02T09:19:58.726Z,12.1
2015-11-02T09:21:00.432Z,12.1
2015-11-02T09:22:00.654Z,12.1
2015-11-02T09:23:00.640Z,12.1
2015-11-02T09:24:00.377Z,12.2
2015-11-02T09:25:00.068Z,12.2
2015-11-02T09:25:59.774Z,12.3
2015-11-02T09:26:59.526Z,12.3
2015-11-02T09:27:58.998Z,12.4
2015-11-02T09:28:58.438Z,12.4
2015-11-02T09:29:57.941Z,12.5
2015-11-02T09:30:59.677Z,12.5
2015-11-02T09:31:58.852Z,12.5
2015-11-02T09:32:57.792Z,12.6
2015-11-02T09:33:59.748Z,12.6
2015-11-02T09:34:55.688Z,12.6
2015-11-02T09:35:54.378Z,12.7
2015-11-02T09:37:51.744Z,12.8
2015-11-02T09:39:49.170Z,12.9
2015-11-02T09:40:50.877Z,12.9
2015-11-02T09:41:49.301Z,13
2015-11-02T09:42:47.741Z,13
2015-11-02T09:43:50.010Z,13.1
2015-11-02T09:44:52.277Z,13.1
2015-11-02T09:45:54.562Z,13.2
2015-11-02T09:46:56.845Z,13.3
2015-11-02T09:47:58.863Z,13.3
2015-11-02T09:49:00.882Z,13.3
2015-11-02T09:50:02.947Z,13.5
2015-11-02T09:51:04.653Z,13.5
2015-11-02T09:52:06.406Z,13.5
2015-11-02T09:53:07.940Z,13.5
2015-11-02T09:54:09.177Z,13.6
2015-11-02T09:55:10.430Z,13.6
2015-11-02T09:56:11.667Z,13.6
2015-11-02T09:57:12.654Z,13.6
2015-11-02T09:58:14.387Z,13.6
2015-11-02T09:59:14.389Z,13.6
2015-11-02T10:00:15.179Z,13.6
2015-11-02T10:01:16.869Z,13.6
2015-11-02T10:02:17.606Z,13.6
2015-11-02T10:03:18.093Z,13.6
2015-11-02T10:04:18.579Z,13.6
2015-11-02T10:05:19.035Z,13.7
2015-11-02T10:06:19.523Z,13.7
2015-11-02T10:07:19.993Z,13.6
2015-11-02T10:08:20.231Z,13.7
2015-11-02T10:09:20.437Z,13.7
2015-11-02T10:10:20.721Z,13.7
2015-11-02T10:11:22.426Z,13.7
2015-11-02T10:12:22.648Z,13.7
2015-11-02T10:13:22.870Z,13.7
2015-11-02T10:14:23.092Z,13.7
2015-11-02T10:15:23.312Z,13.7
2015-11-02T10:16:23.534Z,13.7
2015-11-02T10:17:23.756Z,13.7
2015-11-02T10:18:23.978Z,13.7
2015-11-02T10:19:24.198Z,13.8
2015-11-02T10:20:24.482Z,13.8
2015-11-02T10:21:26.172Z,13.8
2015-11-02T10:22:26.144Z,13.8
2015-11-02T10:23:26.115Z,13.8
2015-11-02T10:24:26.071Z,13.8
2015-11-02T10:25:26.042Z,13.8
2015-11-02T10:26:26.014Z,13.9
2015-11-02T10:27:25.969Z,13.8
2015-11-02T10:28:25.675Z,13.8
2015-11-02T10:29:25.382Z,13.8
2015-11-02T10:30:25.150Z,13.8
2015-11-02T10:31:26.840Z,13.8
2015-11-02T10:32:26.561Z,13.8
2015-11-02T10:33:26.268Z,13.8
2015-11-02T10:34:25.974Z,13.8
2015-11-02T10:35:25.679Z,13.8
2015-11-02T10:36:25.385Z,13.7
2015-11-02T10:37:25.106Z,13.7
2015-11-02T10:38:24.796Z,13.7
2015-11-02T10:39:24.517Z,13.7
2015-11-02T10:40:24.020Z,13.7
2015-11-02T10:41:25.726Z,13.7
2015-11-02T10:42:25.167Z,13.7
2015-11-02T10:43:24.622Z,13.7
2015-11-02T10:44:24.078Z,13.7
2015-11-02T10:45:23.534Z,13.7
2015-11-02T10:46:23.240Z,13.7
2015-11-02T10:47:22.961Z,13.6
2015-11-02T10:48:22.667Z,13.6
2015-11-02T10:49:22.123Z,13.6
2015-11-02T10:50:21.876Z,13.6
2015-11-02T10:51:23.581Z,13.6
2015-11-02T10:52:23.303Z,13.6
2015-11-02T10:53:23.008Z,13.5
2015-11-02T10:54:22.464Z,13.5
2015-11-02T10:55:21.919Z,13.5
2015-11-02T10:56:21.360Z,13.5
2015-11-02T10:57:20.816Z,13.5
2015-11-02T10:58:20.271Z,13.5
2015-11-02T10:59:19.726Z,13.5
2015-11-02T11:00:19.245Z,13.5
2015-11-02T11:01:20.935Z,13.5
2015-11-02T11:02:20.391Z,13.4
2015-11-02T11:03:19.847Z,13.4
2015-11-02T11:04:19.303Z,13.4
2015-11-02T11:05:18.759Z,13.4
2015-11-02T11:06:18.214Z,13.4
2015-11-02T11:07:17.670Z,13.4
2015-11-02T11:08:17.125Z,13.4
2015-11-02T11:09:16.582Z,13.3
2015-11-02T11:10:16.084Z,13.4
2015-11-02T11:11:17.790Z,13.3
2015-11-02T11:12:17.246Z,13.3
2015-11-02T11:13:16.702Z,13.3
2015-11-02T11:14:16.158Z,13.3
2015-11-02T11:15:15.614Z,13.3
2015-11-02T11:16:15.069Z,13.3
2015-11-02T11:17:14.525Z,13.3
2015-11-02T11:18:13.981Z,13.3
2015-11-02T11:19:13.437Z,13.3
2015-11-02T11:20:12.955Z,13.3
2015-11-02T11:21:14.660Z,13.3
2015-11-02T11:22:14.117Z,13.3
2015-11-02T11:23:13.572Z,13.3
2015-11-02T11:24:13.029Z,13.3
2015-11-02T11:25:12.485Z,13.3
2015-11-02T11:26:11.971Z,13.3
2015-11-02T11:27:11.661Z,13.3
2015-11-02T11:28:11.117Z,13.2
2015-11-02T11:29:10.573Z,13.2
2015-11-02T11:30:10.091Z,13.2
2015-11-02T11:31:11.797Z,13.2
2015-11-02T11:32:11.253Z,13.2
2015-11-02T11:33:10.709Z,13.2
2015-11-02T11:34:10.415Z,13.1
2015-11-02T11:35:10.137Z,13.2
2015-11-02T11:36:09.857Z,13.2
2015-11-02T11:37:09.547Z,13.1
2015-11-02T11:38:09.269Z,13.1
2015-11-02T11:39:08.975Z,13.1
2015-11-02T11:40:08.742Z,13.1
2015-11-02T11:41:10.465Z,13.2
2015-11-02T11:42:10.170Z,13.1
2015-11-02T11:43:09.891Z,13.1
2015-11-02T11:44:09.597Z,13.1
2015-11-02T11:45:09.319Z,13.1
2015-11-02T11:46:09.025Z,13.1
2015-11-02T11:47:08.761Z,13.1
2015-11-02T11:48:08.452Z,13.1
2015-11-02T11:49:08.174Z,13.1
2015-11-02T11:50:07.942Z,13.1
2015-11-02T11:51:09.648Z,13.1
2015-11-02T11:52:09.369Z,13.1
2015-11-02T11:53:09.090Z,13.1
2015-11-02T11:54:08.796Z,13.1
2015-11-02T11:55:08.768Z,13.1
2015-11-02T11:56:08.740Z,13.1
2015-11-02T11:57:09.320Z,13.1
2015-11-02T11:58:09.291Z,13.1
2015-11-02T11:59:08.654Z,13.1
2015-11-02T12:00:08.687Z,13
2015-11-02T12:01:10.409Z,13.1
2015-11-02T12:02:10.381Z,13.1
2015-11-02T12:03:10.602Z,13.1
2015-11-02T12:04:10.823Z,13.1
2015-11-02T12:05:11.060Z,13
2015-11-02T12:06:11.298Z,13
2015-11-02T12:07:11.254Z,13
2015-11-02T12:08:11.209Z,13.1
2015-11-02T12:09:11.196Z,13.1
2015-11-02T12:10:11.464Z,13.1
2015-11-02T12:11:13.170Z,13.1
2015-11-02T12:12:13.172Z,13.1
2015-11-02T12:13:13.128Z,13
2015-11-02T12:14:13.100Z,13.1
2015-11-02T12:15:13.337Z,13
2015-11-02T12:16:13.558Z,13.1
2015-11-02T12:17:13.780Z,13.1
2015-11-02T12:18:14.002Z,13.1
2015-11-02T12:19:14.239Z,13.1
2015-11-02T12:20:14.538Z,13
2015-11-02T12:21:16.244Z,13
2015-11-02T12:22:16.466Z,13.1
2015-11-02T12:23:16.703Z,13
2015-11-02T12:24:16.924Z,13
2015-11-02T12:25:17.146Z,13
2015-11-02T12:26:17.382Z,13
2015-11-02T12:27:17.619Z,13
2015-11-02T12:28:17.840Z,13.1
2015-11-02T12:29:18.078Z,13
2015-11-02T12:30:18.362Z,13
2015-11-02T12:31:20.068Z,13.1
2015-11-02T12:32:20.290Z,13.1
2015-11-02T12:33:20.526Z,13.1
2015-11-02T12:34:20.748Z,13.1
2015-11-02T12:35:20.970Z,13.1
2015-11-02T12:36:21.190Z,13.1
2015-11-02T12:37:21.412Z,13.1
2015-11-02T12:38:21.399Z,13.1
2015-11-02T12:39:21.621Z,13.1
2015-11-02T12:40:21.904Z,13.1
2015-11-02T12:41:23.626Z,13.1
2015-11-02T12:42:23.848Z,13.1
2015-11-02T12:43:24.069Z,13.1
2015-11-02T12:44:24.509Z,13.1
2015-11-02T12:45:24.542Z,13.1
2015-11-02T12:46:24.764Z,13.1
2015-11-02T12:47:24.986Z,13.1
2015-11-02T12:48:25.222Z,13.1
2015-11-02T12:49:25.460Z,13.1
2015-11-02T12:50:25.728Z,13.1
2015-11-02T12:51:27.434Z,13.1
2015-11-02T12:52:27.405Z,13.1
2015-11-02T12:53:27.377Z,13.1
2015-11-02T12:54:27.364Z,13.1
2015-11-02T12:55:27.586Z,13.1
2015-11-02T12:56:27.807Z,13.1
2015-11-02T12:57:28.044Z,13.2
2015-11-02T12:58:28.266Z,13.1
2015-11-02T12:59:28.502Z,13.1
2015-11-02T13:00:28.786Z,13.1
2015-11-02T13:01:30.492Z,13.2
2015-11-02T13:02:30.448Z,13.1
2015-11-02T13:03:31.045Z,13.2
2015-11-02T13:04:31.265Z,13.1
2015-11-02T13:05:30.612Z,13.1
2015-11-02T13:06:30.615Z,13.1
2015-11-02T13:07:30.571Z,13.1
2015-11-02T13:08:30.808Z,13.1
2015-11-02T13:09:31.029Z,13.1
2015-11-02T13:10:31.314Z,13.1
2015-11-02T13:11:33.019Z,13.1
2015-11-02T13:13:33.462Z,13.1
2015-11-02T13:14:33.465Z,13.2
2015-11-02T13:15:33.687Z,13.1
2015-11-02T13:16:33.925Z,13.2
2015-11-02T13:17:34.131Z,13.1
2015-11-02T13:18:34.369Z,13.1
2015-11-02T13:19:34.605Z,13.2
2015-11-02T13:20:34.889Z,13.2
2015-11-02T13:21:36.596Z,13.2
2015-11-02T13:22:36.833Z,13.2
2015-11-02T13:23:37.054Z,13.2
2015-11-02T13:24:37.291Z,13.2
2015-11-02T13:25:37.528Z,13.2
2015-11-02T13:26:37.750Z,13.2
2015-11-02T13:27:37.971Z,13.2
2015-11-02T13:28:38.208Z,13.2
2015-11-02T13:29:38.430Z,13.2
2015-11-02T13:30:38.714Z,13.2
2015-11-02T13:32:40.656Z,13.2
2015-11-02T13:33:40.893Z,13.2
2015-11-02T13:34:41.099Z,13.2
2015-11-02T13:35:41.336Z,13.2
2015-11-02T13:36:41.557Z,13.2
2015-11-02T13:37:41.796Z,13.2
2015-11-02T13:38:42.032Z,13.2
2015-11-02T13:39:42.253Z,13.2
2015-11-02T13:40:42.537Z,13.2
2015-11-02T13:41:44.243Z,13.2
2015-11-02T13:42:44.481Z,13.3
2015-11-02T13:43:44.701Z,13.2
2015-11-02T13:44:44.939Z,13.3
2015-11-02T13:45:45.161Z,13.3
2015-11-02T13:46:45.382Z,13.3
2015-11-02T13:47:45.619Z,13.3
2015-11-02T13:48:45.839Z,13.2
2015-11-02T13:49:46.061Z,13.2
2015-11-02T13:50:46.361Z,13.2
2015-11-02T13:51:48.066Z,13.3
2015-11-02T13:53:48.525Z,13.2
2015-11-02T13:54:48.747Z,13.2
2015-11-02T13:55:48.968Z,13.2
2015-11-02T13:56:52.221Z,13.2
2015-11-02T13:57:49.427Z,13.2
2015-11-02T13:58:49.664Z,13.2
2015-11-02T13:59:49.885Z,13.1
2015-11-02T14:00:50.435Z,13.2
2015-11-02T14:01:52.141Z,13.2
2015-11-02T14:02:52.363Z,13.2
2015-11-02T14:03:52.584Z,13.1
2015-11-02T14:04:52.804Z,13.1
2015-11-02T14:05:53.042Z,13.1
2015-11-02T14:06:53.263Z,13.1
2015-11-02T14:07:56.765Z,13.1
2015-11-02T14:08:54.237Z,13.1
2015-11-02T14:10:55.274Z,13.1
2015-11-02T14:11:56.964Z,13.1
2015-11-02T14:12:57.467Z,13.1
2015-11-02T14:13:57.939Z,13.1
2015-11-02T14:14:58.160Z,13.1
2015-11-02T14:15:58.397Z,13.1
2015-11-02T14:16:58.619Z,13.1
2015-11-02T14:17:58.856Z,13.1
2015-11-02T14:18:59.078Z,13.1
2015-11-02T14:19:59.580Z,13.1
2015-11-02T14:21:00.114Z,13.1